createdAt,value
2022-12-23T00:02:25.842Z,1.74
2022-12-23T00:05:34.166Z,1.65
2022-12-23T00:08:40.561Z,1.53
2022-12-23T00:12:02.931Z,1.63
2022-12-23T00:15:05.899Z,1.64
2022-12-23T00:18:08.345Z,1.52
2022-12-23T00:21:15.616Z,1.73
2022-12-23T00:24:18.025Z,1.63
2022-12-23T00:27:20.524Z,1.80
2022-12-23T00:30:23.782Z,1.78
2022-12-23T00:33:30.267Z,1.74
2022-12-23T00:36:32.745Z,1.76
2022-12-23T00:39:55.051Z,1.76
2022-12-23T00:42:58.601Z,1.65
2022-12-23T00:46:01.063Z,1.56
2022-12-23T00:49:22.329Z,1.69
2022-12-23T00:52:24.721Z,1.59
2022-12-23T00:55:27.204Z,1.74
2022-12-23T00:58:31.926Z,1.76
2022-12-23T01:01:53.488Z,1.82
2022-12-23T01:05:14.417Z,1.82
2022-12-23T01:08:16.855Z,1.75
2022-12-23T01:11:19.286Z,1.73
2022-12-23T01:14:22.415Z,1.93
2022-12-23T01:17:25.035Z,1.93
2022-12-23T01:20:29.498Z,1.86
2022-12-23T01:23:32.591Z,1.83
2022-12-23T01:26:35.259Z,1.90
2022-12-23T01:29:37.863Z,1.87
2022-12-23T01:32:40.413Z,1.81
2022-12-23T01:35:42.943Z,1.77
2022-12-23T01:38:45.685Z,1.61
2022-12-23T01:42:06.610Z,1.62
2022-12-23T01:45:28.148Z,1.70
2022-12-23T01:48:30.682Z,1.56
2022-12-23T01:51:33.366Z,1.60
2022-12-23T01:54:36.774Z,1.70
2022-12-23T01:57:41.298Z,1.48
2022-12-23T02:01:04.583Z,1.61
2022-12-23T02:04:15.633Z,1.65
2022-12-23T02:07:36.905Z,1.78
2022-12-23T02:11:17.754Z,1.88
2022-12-23T02:15:09.618Z,1.83
2022-12-23T02:18:12.050Z,1.84
2022-12-23T02:21:31.858Z,1.93
2022-12-23T02:25:02.276Z,1.99
2022-12-23T02:28:27.188Z,1.95
2022-12-23T02:31:34.925Z,1.98
2022-12-23T02:34:56.023Z,1.87
2022-12-23T02:38:10.558Z,1.89
2022-12-23T02:41:23.129Z,1.85
2022-12-23T02:44:52.806Z,1.95
2022-12-23T02:48:03.152Z,1.98
2022-12-23T02:51:06.818Z,1.93
2022-12-23T02:54:11.793Z,1.93
2022-12-23T02:57:17.258Z,1.98
2022-12-23T03:00:20.218Z,2.00
2022-12-23T03:03:23.131Z,1.77
2022-12-23T03:06:38.624Z,2.01
2022-12-23T03:09:51.777Z,1.99
2022-12-23T03:13:45.028Z,2.04
2022-12-23T03:17:28.691Z,2.05
2022-12-23T03:20:44.616Z,2.01
2022-12-23T03:23:55.941Z,1.98
2022-12-23T03:27:08.060Z,1.99
2022-12-23T03:30:13.904Z,1.86
2022-12-23T03:33:26.199Z,1.98
2022-12-23T03:36:33.013Z,1.87
2022-12-23T03:39:40.914Z,1.98
2022-12-23T03:42:45.277Z,1.98
2022-12-23T03:45:58.055Z,1.91
2022-12-23T03:49:05.456Z,1.89
2022-12-23T03:52:18.856Z,1.84
2022-12-23T03:55:32.057Z,1.87
2022-12-23T03:58:57.881Z,1.95
2022-12-23T04:02:06.748Z,1.94
2022-12-23T04:05:28.383Z,2.00
2022-12-23T04:08:33.861Z,2.08
2022-12-23T04:11:36.764Z,1.85
2022-12-23T04:14:46.170Z,1.83
2022-12-23T04:17:49.802Z,1.76
2022-12-23T04:20:58.381Z,1.80
2022-12-23T04:24:00.874Z,1.91
2022-12-23T04:27:03.329Z,1.96
2022-12-23T04:30:07.593Z,1.92
2022-12-23T04:33:13.218Z,1.77
2022-12-23T04:36:15.716Z,2.00
2022-12-23T04:39:18.195Z,2.06
2022-12-23T04:42:20.639Z,1.90
2022-12-23T04:45:23.159Z,2.04
2022-12-23T04:48:25.665Z,1.75
2022-12-23T04:51:28.139Z,1.94
2022-12-23T04:54:30.580Z,1.98
2022-12-23T04:57:33.150Z,1.93
2022-12-23T05:00:39.721Z,2.05
2022-12-23T05:03:42.600Z,1.94
2022-12-23T05:06:45.005Z,2.00
2022-12-23T05:09:47.420Z,2.04
2022-12-23T05:12:49.835Z,1.92
2022-12-23T05:15:53.597Z,1.96
2022-12-23T05:18:56.121Z,1.99
2022-12-23T05:21:58.691Z,1.90
2022-12-23T05:25:01.182Z,2.02
2022-12-23T05:28:04.475Z,2.04
2022-12-23T05:31:08.451Z,1.96
2022-12-23T05:34:10.967Z,2.14
2022-12-23T05:37:13.445Z,2.13
2022-12-23T05:40:24.726Z,2.06
2022-12-23T05:43:31.945Z,2.13
2022-12-23T05:46:34.569Z,2.07
2022-12-23T05:49:37.181Z,1.92
2022-12-23T05:52:39.760Z,1.96
2022-12-23T05:55:42.205Z,1.91
2022-12-23T05:58:44.682Z,1.93
2022-12-23T06:01:47.304Z,1.99
2022-12-23T06:04:49.905Z,2.00
2022-12-23T06:07:52.419Z,2.00
2022-12-23T06:10:55.566Z,2.03
2022-12-23T06:13:58.033Z,2.00
2022-12-23T06:17:00.586Z,2.03
2022-12-23T06:20:03.627Z,2.00
2022-12-23T06:23:07.167Z,2.13
2022-12-23T06:26:09.648Z,2.13
2022-12-23T06:29:12.162Z,2.08
2022-12-23T06:32:14.891Z,2.13
2022-12-23T06:35:17.390Z,2.15
2022-12-23T06:38:19.913Z,2.01
2022-12-23T06:41:22.361Z,2.12
2022-12-23T06:44:24.883Z,2.13
2022-12-23T06:47:27.362Z,2.05
2022-12-23T06:50:29.753Z,2.19
2022-12-23T06:53:32.345Z,2.17
2022-12-23T06:56:34.827Z,2.23
2022-12-23T06:59:37.283Z,2.31
2022-12-23T07:02:40.300Z,2.14
2022-12-23T07:05:42.964Z,2.18
2022-12-23T07:08:45.427Z,2.19
2022-12-23T07:11:47.952Z,2.34
2022-12-23T07:14:50.729Z,2.29
2022-12-23T07:17:54.747Z,2.40
2022-12-23T07:20:59.735Z,2.44
2022-12-23T07:24:02.365Z,2.39
2022-12-23T07:27:05.313Z,2.43
2022-12-23T07:30:08.622Z,2.21
2022-12-23T07:33:11.078Z,2.26
2022-12-23T07:36:13.525Z,2.28
2022-12-23T07:39:16.029Z,2.24
2022-12-23T07:42:44.201Z,2.48
2022-12-23T07:45:40.929Z,2.24
2022-12-23T07:48:43.539Z,2.36
2022-12-23T07:51:46.025Z,2.29
2022-12-23T07:54:48.514Z,2.42
2022-12-23T07:57:51.797Z,2.20
2022-12-23T08:01:02.365Z,2.34
2022-12-23T08:04:05.067Z,2.44
2022-12-23T08:07:07.444Z,2.39
2022-12-23T08:10:10.307Z,2.36
2022-12-23T08:13:13.310Z,2.43
2022-12-23T08:16:15.805Z,2.40
2022-12-23T08:19:18.558Z,2.41
2022-12-23T08:22:21.148Z,2.30
2022-12-23T08:25:23.653Z,2.31
2022-12-23T08:28:26.349Z,2.47
2022-12-23T08:31:33.811Z,2.36
2022-12-23T08:34:37.093Z,2.49
2022-12-23T08:37:39.588Z,2.40
2022-12-23T08:40:42.771Z,2.59
2022-12-23T08:43:45.708Z,2.64
2022-12-23T08:46:48.473Z,2.73
2022-12-23T08:49:52.462Z,2.69
2022-12-23T08:52:54.983Z,2.98
2022-12-23T08:56:02.587Z,2.92
2022-12-23T08:59:05.224Z,2.82
2022-12-23T09:02:10.124Z,3.00
2022-12-23T09:05:12.774Z,2.99
2022-12-23T09:08:15.216Z,2.79
2022-12-23T09:11:20.789Z,2.95
2022-12-23T09:14:23.251Z,2.89
2022-12-23T09:17:25.685Z,2.86
2022-12-23T09:20:29.115Z,2.99
2022-12-23T09:23:32.006Z,2.98
2022-12-23T09:26:34.613Z,2.97
2022-12-23T09:29:37.026Z,3.05
2022-12-23T09:32:39.525Z,3.09
2022-12-23T09:35:41.981Z,3.02
2022-12-23T09:38:44.884Z,3.28
2022-12-23T09:42:01.644Z,3.36
2022-12-23T09:45:36.960Z,3.26
2022-12-23T09:48:59.990Z,3.03
2022-12-23T09:52:04.758Z,3.29
2022-12-23T09:55:09.728Z,3.13
2022-12-23T09:58:40.974Z,3.27
2022-12-23T10:02:04.092Z,3.32
2022-12-23T10:05:09.491Z,3.43
2022-12-23T10:08:27.123Z,3.40
2022-12-23T10:11:37.977Z,3.53
2022-12-23T10:14:40.969Z,3.43
2022-12-23T10:17:43.701Z,3.47
2022-12-23T10:21:22.202Z,3.45
2022-12-23T10:24:26.820Z,3.45
2022-12-23T10:27:38.743Z,3.34
2022-12-23T10:31:16.865Z,3.38
2022-12-23T10:34:25.279Z,3.39
2022-12-23T10:37:49.176Z,3.59
2022-12-23T10:41:10.055Z,3.54
2022-12-23T10:44:26.284Z,3.49
2022-12-23T10:47:55.355Z,3.52
2022-12-23T10:51:04.800Z,3.58
2022-12-23T10:54:12.865Z,3.76
2022-12-23T10:57:17.698Z,3.75
2022-12-23T11:00:24.316Z,3.85
2022-12-23T11:03:31.743Z,4.01
2022-12-23T11:06:39.223Z,3.76
2022-12-23T11:09:47.910Z,3.96
2022-12-23T11:12:52.742Z,3.92
2022-12-23T11:15:55.397Z,4.06
2022-12-23T11:19:03.951Z,3.95
2022-12-23T11:22:06.444Z,3.90
2022-12-23T11:25:30.568Z,4.03
2022-12-23T11:28:34.899Z,4.15
2022-12-23T11:31:37.750Z,4.21
2022-12-23T11:34:45.363Z,4.11
2022-12-23T11:37:47.797Z,4.06
2022-12-23T11:40:50.807Z,4.06
2022-12-23T11:44:00.355Z,4.25
2022-12-23T11:47:23.911Z,4.13
2022-12-23T11:50:26.696Z,4.27
2022-12-23T11:53:29.477Z,4.22
2022-12-23T11:56:37.025Z,4.18
2022-12-23T11:59:41.839Z,4.12
2022-12-23T12:02:46.338Z,4.16
2022-12-23T12:06:09.035Z,4.31
2022-12-23T12:09:13.060Z,4.49
2022-12-23T12:12:19.409Z,4.41
2022-12-23T12:15:45.233Z,4.34
2022-12-23T12:18:53.699Z,4.44
2022-12-23T12:22:06.476Z,4.53
2022-12-23T12:25:22.224Z,4.56
2022-12-23T12:28:31.664Z,4.51
2022-12-23T12:31:38.446Z,4.71
2022-12-23T12:35:00.496Z,4.78
2022-12-23T12:38:11.913Z,4.69
2022-12-23T12:41:23.512Z,4.86
2022-12-23T12:45:08.453Z,4.78
2022-12-23T12:48:43.320Z,4.87
2022-12-23T12:51:55.108Z,4.82
2022-12-23T12:55:28.737Z,4.89
2022-12-23T12:58:31.398Z,4.97
2022-12-23T13:01:52.836Z,4.98
2022-12-23T13:05:12.587Z,4.95
2022-12-23T13:08:26.480Z,4.78
2022-12-23T13:11:33.116Z,5.02
2022-12-23T13:14:56.467Z,4.84
2022-12-23T13:18:13.853Z,5.04
2022-12-23T13:21:32.677Z,5.01
2022-12-23T13:25:13.111Z,4.99
2022-12-23T13:28:18.266Z,5.01
2022-12-23T13:31:33.687Z,4.97
2022-12-23T13:34:41.866Z,4.77
2022-12-23T13:38:41.446Z,4.96
2022-12-23T13:41:50.064Z,4.87
2022-12-23T13:44:53.003Z,4.85
2022-12-23T13:48:06.389Z,4.85
2022-12-23T13:51:20.995Z,4.99
2022-12-23T13:54:42.012Z,4.96
2022-12-23T13:57:55.731Z,4.99
2022-12-23T14:01:10.648Z,4.92
2022-12-23T14:04:33.296Z,4.98
2022-12-23T14:07:35.855Z,4.81
2022-12-23T14:10:39.059Z,5.02
2022-12-23T14:13:43.244Z,5.12
2022-12-23T14:17:03.898Z,5.15
2022-12-23T14:20:20.190Z,5.02
2022-12-23T14:23:44.127Z,5.10
2022-12-23T14:27:05.071Z,5.16
2022-12-23T14:30:35.917Z,5.10
2022-12-23T14:33:38.406Z,5.05
2022-12-23T14:37:28.712Z,5.14
2022-12-23T14:40:36.836Z,5.15
2022-12-23T14:43:45.328Z,5.19
2022-12-23T14:46:47.734Z,5.13
2022-12-23T14:49:50.981Z,5.17
2022-12-23T14:53:00.239Z,5.12
2022-12-23T14:56:14.929Z,5.17
2022-12-23T14:59:35.866Z,5.13
2022-12-23T15:02:41.341Z,5.02
2022-12-23T15:05:44.229Z,5.11
2022-12-23T15:08:47.849Z,5.12
2022-12-23T15:11:51.888Z,5.18
2022-12-23T15:14:58.265Z,5.12
2022-12-23T15:18:14.165Z,5.18
2022-12-23T15:21:16.654Z,5.05
2022-12-23T15:24:22.679Z,4.95
2022-12-23T15:27:27.791Z,5.09
2022-12-23T15:30:37.164Z,5.12
2022-12-23T15:37:02.304Z,5.15
2022-12-23T15:40:12.516Z,5.10
2022-12-23T15:43:23.322Z,5.13
2022-12-23T15:46:30.163Z,5.21
2022-12-23T15:49:33.210Z,5.25
2022-12-23T15:52:35.750Z,5.22
2022-12-23T15:55:40.343Z,5.28
2022-12-23T15:58:42.818Z,5.26
2022-12-23T16:01:45.460Z,5.05
2022-12-23T16:04:55.079Z,5.14
2022-12-23T16:08:23.045Z,5.13
2022-12-23T16:12:00.542Z,5.11
2022-12-23T16:15:19.258Z,5.08
2022-12-23T16:18:31.700Z,4.97
2022-12-23T16:21:36.001Z,5.03
2022-12-23T16:24:53.919Z,5.05
2022-12-23T16:28:03.192Z,5.05
2022-12-23T16:31:08.180Z,5.12
2022-12-23T16:34:12.077Z,4.98
2022-12-23T16:37:14.485Z,5.02
2022-12-23T16:40:17.478Z,4.99
2022-12-23T16:43:21.516Z,5.02
2022-12-23T16:46:24.388Z,5.02
2022-12-23T16:49:33.208Z,5.10
2022-12-23T16:52:36.445Z,5.06
2022-12-23T16:55:44.391Z,5.04
2022-12-23T16:58:50.791Z,4.91
2022-12-23T17:01:55.535Z,4.94
2022-12-23T17:05:02.352Z,4.92
2022-12-23T17:08:04.917Z,4.98
2022-12-23T17:11:39.790Z,5.02
2022-12-23T17:14:42.321Z,5.08
2022-12-23T17:17:45.137Z,5.01
2022-12-23T17:20:49.298Z,5.09
2022-12-23T17:23:56.827Z,5.09
2022-12-23T17:26:59.382Z,5.03
2022-12-23T17:30:01.874Z,5.08
2022-12-23T17:33:05.638Z,5.18
2022-12-23T17:36:09.550Z,5.15
2022-12-23T17:39:12.342Z,5.19
2022-12-23T17:42:26.042Z,5.14
2022-12-23T17:45:30.735Z,5.01
2022-12-23T17:48:33.220Z,5.06
2022-12-23T17:51:36.111Z,5.15
2022-12-23T17:54:39.697Z,5.12
2022-12-23T17:57:42.186Z,5.09
2022-12-23T18:00:47.659Z,5.03
2022-12-23T18:03:51.029Z,5.05
2022-12-23T18:06:53.521Z,4.98
2022-12-23T18:09:55.979Z,4.92
2022-12-23T18:13:01.495Z,5.04
2022-12-23T18:16:04.089Z,5.04
2022-12-23T18:19:14.016Z,4.95
2022-12-23T18:22:20.815Z,4.99
2022-12-23T18:25:25.441Z,4.96
2022-12-23T18:28:31.161Z,4.81
2022-12-23T18:31:33.701Z,4.96
2022-12-23T18:34:36.160Z,4.93
2022-12-23T18:37:38.663Z,5.09
2022-12-23T18:40:41.986Z,5.12
2022-12-23T18:43:44.946Z,5.20
2022-12-23T18:46:48.425Z,5.22
2022-12-23T18:49:50.934Z,5.22
2022-12-23T18:52:54.105Z,5.11
2022-12-23T18:55:56.564Z,5.09
2022-12-23T18:58:59.018Z,5.17
2022-12-23T19:02:01.724Z,5.16
2022-12-23T19:05:04.594Z,5.06
2022-12-23T19:08:07.263Z,5.09
2022-12-23T19:11:18.410Z,4.99
2022-12-23T19:14:21.254Z,5.11
2022-12-23T19:17:23.675Z,5.09
2022-12-23T19:20:28.457Z,5.03
2022-12-23T19:23:31.393Z,5.05
2022-12-23T19:26:33.897Z,5.12
2022-12-23T19:29:36.369Z,5.21
2022-12-23T19:32:38.812Z,5.10
2022-12-23T19:35:42.179Z,5.13
2022-12-23T19:38:45.026Z,5.17
2022-12-23T19:41:48.050Z,5.22
2022-12-23T19:44:50.489Z,5.23
2022-12-23T19:47:53.570Z,5.11
2022-12-23T19:51:00.814Z,5.05
2022-12-23T19:54:03.401Z,5.06
2022-12-23T19:57:05.863Z,5.11
2022-12-23T20:00:09.545Z,5.08
2022-12-23T20:03:14.990Z,5.07
2022-12-23T20:06:19.344Z,5.20
2022-12-23T20:09:21.809Z,5.12
2022-12-23T20:12:26.417Z,5.17
2022-12-23T20:15:28.826Z,5.26
2022-12-23T20:18:31.360Z,5.32
2022-12-23T20:21:35.427Z,5.28
2022-12-23T20:24:37.961Z,5.32
2022-12-23T20:27:40.632Z,5.33
2022-12-23T20:30:48.213Z,5.26
2022-12-23T20:33:52.057Z,5.16
2022-12-23T20:36:54.505Z,5.16
2022-12-23T20:39:57.236Z,4.85
2022-12-23T20:42:59.748Z,5.04
2022-12-23T20:46:04.214Z,5.03
2022-12-23T20:49:06.741Z,4.87
2022-12-23T20:52:09.440Z,4.67
2022-12-23T20:55:11.961Z,4.62
2022-12-23T20:58:33.300Z,4.56
2022-12-23T21:01:38.675Z,4.50
2022-12-23T21:04:41.510Z,4.47
2022-12-23T21:07:43.987Z,4.50
2022-12-23T21:10:53.529Z,4.40
2022-12-23T21:13:59.841Z,4.50
2022-12-23T21:17:05.253Z,4.56
2022-12-23T21:20:09.199Z,4.72
2022-12-23T21:23:13.632Z,4.69
2022-12-23T21:26:21.241Z,4.52
2022-12-23T21:29:23.928Z,4.48
2022-12-23T21:32:26.524Z,4.49
2022-12-23T21:35:29.209Z,4.70
2022-12-23T21:38:36.864Z,4.59
2022-12-23T21:41:41.274Z,4.82
2022-12-23T21:44:43.777Z,4.99
2022-12-23T21:47:46.212Z,4.98
2022-12-23T21:50:54.064Z,4.93
2022-12-23T21:53:58.875Z,5.09
2022-12-23T21:57:01.388Z,4.95
2022-12-23T22:00:04.357Z,4.72
2022-12-23T22:03:07.063Z,4.74
2022-12-23T22:06:17.997Z,4.84
2022-12-23T22:09:20.554Z,4.93
2022-12-23T22:12:23.059Z,4.82
2022-12-23T22:15:25.574Z,4.57
2022-12-23T22:18:28.051Z,4.38
2022-12-23T22:21:31.971Z,4.46
2022-12-23T22:24:34.442Z,4.57
2022-12-23T22:27:36.923Z,4.69
2022-12-23T22:30:39.468Z,4.49
2022-12-23T22:33:42.088Z,4.50
2022-12-23T22:36:45.059Z,4.42
2022-12-23T22:39:47.799Z,4.43
2022-12-23T22:42:50.216Z,4.49
2022-12-23T22:45:57.504Z,4.49
2022-12-23T22:49:00.230Z,4.46
2022-12-23T22:52:02.790Z,4.50
2022-12-23T22:55:06.301Z,4.77
2022-12-23T22:58:08.824Z,4.83
2022-12-23T23:01:22.777Z,4.66
2022-12-23T23:04:25.368Z,4.84
2022-12-23T23:07:27.841Z,4.92
2022-12-23T23:10:33.288Z,4.82
2022-12-23T23:13:35.891Z,4.72
2022-12-23T23:16:38.946Z,4.68
2022-12-23T23:19:41.567Z,4.62
2022-12-23T23:22:44.625Z,4.75
2022-12-23T23:25:47.547Z,4.63
2022-12-23T23:28:50.007Z,4.73
2022-12-23T23:31:52.508Z,4.57
2022-12-23T23:34:55.067Z,4.44
2022-12-23T23:37:57.533Z,4.43
2022-12-23T23:41:00.255Z,4.66
2022-12-23T23:44:02.894Z,4.51
2022-12-23T23:47:05.354Z,4.55
2022-12-23T23:50:08.373Z,4.64
2022-12-23T23:53:12.097Z,4.51
2022-12-23T23:56:15.797Z,4.62
2022-12-23T23:59:20.603Z,4.57
